LiveATC.Net - Listen to live air traffic control over the Internet! Contact for advertising information

ICAO: MMGL  IATA: GDL   Airport: Don Miguel Hidalgo y Costilla International
City: Guadalajara
Country: Mexico   Continent: North America
MMGL METAR Weather: MMGL 131549Z 00000KT 5SM SKC 22/15 A3025 RMK HZY CI
MMGL Flight Activity (FlightAware)
MMGL Twr/App
Feed Status: UP   Listeners: 4
Listen right in your browser - requires Flash (in browser, requires Flash)
Click here to listen with your own player (launches your MP3 player)
MMGL Twr/App Audio Archives
Guadalajara Approach120.800
Guadalajara Tower118.100


Unauthorized use prohibited. See Terms of Service

Find LiveATC Audio Streams

Airport/ARTCC Code

(e.g., 124.400, 128.75)
Site-wide search

Browse LiveATC Feeds
LiveATC Coverage Map
Top 50 LiveATC Feeds
Bad Weather Areas

Offer a LiveATC Feed
Press Inquiries

LiveATC on iPhone
LiveATC on Android

Windows Phone
Windows 8/10

LiveATC Mobile
(Mobile browser)

ATC Audio Archives
Interesting Recordings

LiveATC Forums

Home Page
Make a Donation
LiveATC Bookstore

Terms of Use
Privacy Policy

ATC/Radar Sites
U.S. ARTCC Freqs
Canadian Air Freqs


FAA Airport Status
Nat'l Airspace Status
Arrival Demand Charts

Server Software By:

Please make a donation to help us keep growing!